createdAt,value
2023-02-09T00:00:34.024Z,32.70
2023-02-09T00:03:28.232Z,31.80
2023-02-09T00:06:24.682Z,32.00
2023-02-09T00:09:19.061Z,32.40
2023-02-09T00:12:32.271Z,31.20
2023-02-09T00:15:26.585Z,30.40
2023-02-09T00:18:21.838Z,30.70
2023-02-09T00:21:16.091Z,31.30
2023-02-09T00:24:14.007Z,30.70
2023-02-09T00:27:08.506Z,29.90
2023-02-09T00:30:03.189Z,30.00
2023-02-09T00:32:57.505Z,30.00
2023-02-09T00:35:51.840Z,30.00
2023-02-09T00:38:46.727Z,29.00
2023-02-09T00:41:59.304Z,29.30
2023-02-09T00:44:53.527Z,29.30
2023-02-09T00:47:47.949Z,29.60
2023-02-09T00:50:42.139Z,29.00
2023-02-09T00:53:36.467Z,29.60
2023-02-09T00:56:30.741Z,29.10
2023-02-09T00:59:25.024Z,29.90
2023-02-09T01:02:19.405Z,29.80
2023-02-09T01:05:13.847Z,29.30
2023-02-09T01:08:08.222Z,29.30
2023-02-09T01:11:02.524Z,28.70
2023-02-09T01:14:01.571Z,28.40
2023-02-09T01:16:56.001Z,27.50
2023-02-09T01:19:54.610Z,28.30
2023-02-09T01:22:49.034Z,28.40
2023-02-09T01:25:43.282Z,27.60
2023-02-09T01:28:38.093Z,27.20
2023-02-09T01:31:35.544Z,28.10
2023-02-09T01:34:29.912Z,27.60
2023-02-09T01:37:24.185Z,26.70
2023-02-09T01:40:18.475Z,27.10
2023-02-09T01:43:14.845Z,26.50
2023-02-09T01:46:09.162Z,26.90
2023-02-09T01:49:28.998Z,26.90
2023-02-09T01:52:30.899Z,27.40
2023-02-09T01:55:28.883Z,26.50
2023-02-09T01:58:24.545Z,26.70
2023-02-09T02:01:19.546Z,27.60
2023-02-09T02:04:14.517Z,27.10
2023-02-09T02:07:30.537Z,26.90
2023-02-09T02:10:24.973Z,26.50
2023-02-09T02:13:19.655Z,26.10
2023-02-09T02:16:36.844Z,25.80
2023-02-09T02:20:07.923Z,26.30
2023-02-09T02:23:17.335Z,26.40
2023-02-09T02:26:39.184Z,26.30
2023-02-09T02:29:52.138Z,25.90
2023-02-09T02:33:15.825Z,26.40
2023-02-09T02:36:24.854Z,26.80
2023-02-09T02:39:33.417Z,26.30
2023-02-09T02:42:54.148Z,24.60
2023-02-09T02:46:00.359Z,25.60
2023-02-09T02:48:58.404Z,26.30
2023-02-09T02:51:57.033Z,26.10
2023-02-09T02:55:03.237Z,26.00
2023-02-09T02:58:00.362Z,25.90
2023-02-09T03:00:58.254Z,26.00
2023-02-09T03:03:53.927Z,27.10
2023-02-09T03:06:48.156Z,27.40
2023-02-09T03:09:54.864Z,26.90
2023-02-09T03:13:04.530Z,26.00
2023-02-09T03:16:25.010Z,27.10
2023-02-09T03:19:47.802Z,26.70
2023-02-09T03:22:46.823Z,26.00
2023-02-09T03:25:47.039Z,25.80
2023-02-09T03:28:44.654Z,26.10
2023-02-09T03:31:40.104Z,26.00
2023-02-09T03:34:34.639Z,26.40
2023-02-09T03:37:29.100Z,26.80
2023-02-09T03:40:23.482Z,25.60
2023-02-09T03:43:17.896Z,25.00
2023-02-09T03:46:12.240Z,25.90
2023-02-09T03:49:06.516Z,25.00
2023-02-09T03:52:04.553Z,25.70
2023-02-09T03:54:58.883Z,25.30
2023-02-09T03:57:53.408Z,25.20
2023-02-09T04:00:47.877Z,24.90
2023-02-09T04:03:42.234Z,25.70
2023-02-09T04:06:37.316Z,23.90
2023-02-09T04:09:32.004Z,25.80
2023-02-09T04:12:26.321Z,25.30
2023-02-09T04:15:20.555Z,24.80
2023-02-09T04:18:14.898Z,25.30
2023-02-09T04:21:09.090Z,25.70
2023-02-09T04:24:03.321Z,25.40
2023-02-09T04:26:57.783Z,26.00
2023-02-09T04:29:52.030Z,25.80
2023-02-09T04:32:46.321Z,24.30
2023-02-09T04:35:40.578Z,24.20
2023-02-09T04:38:34.978Z,24.20
2023-02-09T04:41:29.468Z,23.80
2023-02-09T04:44:23.652Z,24.20
2023-02-09T04:47:18.002Z,24.00
2023-02-09T04:50:12.583Z,24.00
2023-02-09T04:53:07.117Z,24.20
2023-02-09T04:56:01.573Z,23.50
2023-02-09T04:59:14.437Z,24.00
2023-02-09T05:02:10.095Z,23.60
2023-02-09T05:05:08.870Z,23.00
2023-02-09T05:08:03.250Z,23.80
2023-02-09T05:10:58.187Z,24.20
2023-02-09T05:13:52.979Z,23.80
2023-02-09T05:16:47.342Z,22.90
2023-02-09T05:19:41.629Z,23.40
2023-02-09T05:22:36.200Z,23.00
2023-02-09T05:25:30.882Z,24.00
2023-02-09T05:28:26.519Z,23.40
2023-02-09T05:31:20.992Z,23.10
2023-02-09T05:34:15.344Z,23.70
2023-02-09T05:37:09.570Z,24.10
2023-02-09T05:40:03.864Z,23.60
2023-02-09T05:42:58.737Z,23.80
2023-02-09T05:45:53.223Z,23.30
2023-02-09T05:48:47.407Z,23.50
2023-02-09T05:51:41.733Z,23.40
2023-02-09T05:54:36.206Z,22.80
2023-02-09T05:57:30.429Z,23.50
2023-02-09T06:00:26.264Z,23.10
2023-02-09T06:03:20.582Z,23.30
2023-02-09T06:06:14.853Z,23.50
2023-02-09T06:09:09.402Z,23.60
2023-02-09T06:12:03.695Z,23.30
2023-02-09T06:14:57.940Z,22.50
2023-02-09T06:17:52.136Z,23.00
2023-02-09T06:20:46.645Z,23.60
2023-02-09T06:23:41.503Z,23.40
2023-02-09T06:26:35.992Z,21.90
2023-02-09T06:29:30.271Z,23.30
2023-02-09T06:32:24.565Z,23.80
2023-02-09T06:35:18.897Z,24.00
2023-02-09T06:38:13.463Z,23.90
2023-02-09T06:41:08.115Z,23.50
2023-02-09T06:44:02.379Z,22.30
2023-02-09T06:46:56.710Z,22.90
2023-02-09T06:49:50.992Z,21.60
2023-02-09T06:52:45.810Z,22.20
2023-02-09T06:55:40.529Z,23.40
2023-02-09T06:58:34.918Z,22.10
2023-02-09T07:01:29.304Z,21.70
2023-02-09T07:04:23.813Z,21.80
2023-02-09T07:07:18.466Z,22.30
2023-02-09T07:10:15.620Z,23.00
2023-02-09T07:13:09.883Z,23.00
2023-02-09T07:16:06.183Z,23.10
2023-02-09T07:19:01.742Z,23.00
2023-02-09T07:21:56.011Z,23.10
2023-02-09T07:24:50.890Z,22.40
2023-02-09T07:27:46.106Z,22.10
2023-02-09T07:30:42.313Z,22.60
2023-02-09T07:33:37.776Z,22.90
2023-02-09T07:36:32.038Z,22.10
2023-02-09T07:39:26.491Z,22.60
2023-02-09T07:42:21.999Z,21.60
2023-02-09T07:45:17.509Z,22.80
2023-02-09T07:48:13.281Z,23.50
2023-02-09T07:51:07.788Z,23.30
2023-02-09T07:54:02.262Z,23.90
2023-02-09T07:56:57.828Z,23.00
2023-02-09T07:59:52.091Z,23.50
2023-02-09T08:02:47.462Z,23.20
2023-02-09T08:06:00.311Z,23.50
2023-02-09T08:08:55.113Z,23.30
2023-02-09T08:11:57.368Z,23.20
2023-02-09T08:14:51.674Z,21.80
2023-02-09T08:17:47.513Z,22.50
2023-02-09T08:20:42.243Z,22.80
2023-02-09T08:23:39.483Z,23.20
2023-02-09T08:26:34.704Z,23.10
2023-02-09T08:29:29.722Z,23.40
2023-02-09T08:32:24.037Z,23.70
2023-02-09T08:35:18.395Z,23.20
2023-02-09T08:38:12.717Z,23.20
2023-02-09T08:41:09.361Z,22.80
2023-02-09T08:44:04.338Z,22.60
2023-02-09T08:46:58.711Z,22.90
2023-02-09T08:49:53.127Z,23.60
2023-02-09T08:52:47.484Z,22.70
2023-02-09T08:55:41.707Z,22.80
2023-02-09T08:58:36.276Z,23.40
2023-02-09T09:01:30.834Z,23.50
2023-02-09T09:04:25.160Z,23.50
2023-02-09T09:07:19.512Z,23.60
2023-02-09T09:10:14.219Z,24.20
2023-02-09T09:13:08.485Z,23.80
2023-02-09T09:16:05.077Z,23.50
2023-02-09T09:18:59.534Z,24.30
2023-02-09T09:21:53.759Z,26.70
2023-02-09T09:24:48.019Z,27.60
2023-02-09T09:27:42.322Z,28.50
2023-02-09T09:30:37.801Z,29.00
2023-02-09T09:33:32.036Z,29.30
2023-02-09T09:36:26.311Z,29.80
2023-02-09T09:39:20.672Z,30.10
2023-02-09T09:42:36.397Z,30.60
2023-02-09T09:45:32.811Z,31.10
2023-02-09T09:48:31.303Z,31.70
2023-02-09T09:51:49.566Z,32.00
2023-02-09T09:54:45.481Z,32.20
2023-02-09T09:57:45.027Z,32.50
2023-02-09T10:00:42.784Z,32.70
2023-02-09T10:03:37.179Z,32.90
2023-02-09T10:06:34.843Z,32.90
2023-02-09T10:10:05.661Z,33.20
2023-02-09T10:13:04.369Z,33.40
2023-02-09T10:16:00.269Z,33.40
2023-02-09T10:18:59.919Z,33.40
2023-02-09T10:21:55.739Z,33.40
2023-02-09T10:24:50.003Z,33.20
2023-02-09T10:27:48.549Z,33.10
2023-02-09T10:30:42.872Z,33.30
2023-02-09T10:33:46.592Z,33.20
2023-02-09T10:37:12.672Z,33.40
2023-02-09T10:40:18.216Z,33.20
2023-02-09T10:43:35.430Z,32.90
2023-02-09T10:46:29.862Z,33.10
2023-02-09T10:49:38.292Z,33.00
2023-02-09T10:52:37.922Z,32.90
2023-02-09T10:55:37.151Z,33.00
2023-02-09T10:58:34.700Z,32.80
2023-02-09T11:01:35.041Z,32.90
2023-02-09T11:04:42.239Z,33.10
2023-02-09T11:07:43.435Z,33.10
2023-02-09T11:10:43.214Z,33.30
2023-02-09T11:13:38.013Z,33.30
2023-02-09T11:16:39.253Z,33.20
2023-02-09T11:19:48.634Z,33.00
2023-02-09T11:22:48.960Z,32.50
2023-02-09T11:25:58.724Z,32.60
2023-02-09T11:29:22.467Z,32.50
2023-02-09T11:32:19.576Z,32.10
2023-02-09T11:35:26.179Z,32.00
2023-02-09T11:38:34.843Z,32.20
2023-02-09T11:42:00.288Z,31.70
2023-02-09T11:45:03.842Z,30.60
2023-02-09T11:48:10.581Z,30.50
2023-02-09T11:51:36.228Z,30.40
2023-02-09T11:54:36.447Z,30.60
2023-02-09T11:57:48.986Z,30.30
2023-02-09T12:01:16.814Z,30.00
2023-02-09T12:04:26.820Z,29.70
2023-02-09T12:07:32.761Z,29.20
2023-02-09T12:10:54.894Z,29.10
2023-02-09T12:14:05.521Z,29.30
2023-02-09T12:17:11.720Z,29.30
2023-02-09T12:20:07.530Z,29.30
2023-02-09T12:23:34.450Z,29.20
2023-02-09T12:26:42.518Z,28.90
2023-02-09T12:29:42.312Z,29.10
2023-02-09T12:32:46.970Z,28.90
2023-02-09T12:35:42.074Z,28.70
2023-02-09T12:39:04.539Z,28.80
2023-02-09T12:42:11.624Z,28.70
2023-02-09T12:45:34.684Z,28.70
2023-02-09T12:48:29.001Z,28.80
2023-02-09T12:51:48.025Z,28.80
2023-02-09T12:54:57.845Z,28.70
2023-02-09T12:57:53.451Z,29.00
2023-02-09T13:00:55.792Z,28.50
2023-02-09T13:04:04.661Z,28.70
2023-02-09T13:07:00.304Z,28.70
2023-02-09T13:09:56.215Z,28.50
2023-02-09T13:13:14.453Z,28.50
2023-02-09T13:16:23.922Z,28.00
2023-02-09T13:19:48.158Z,28.10
2023-02-09T13:22:51.858Z,27.90
2023-02-09T13:25:48.377Z,27.90
2023-02-09T13:28:42.794Z,27.80
2023-02-09T13:31:38.421Z,27.90
2023-02-09T13:34:48.673Z,27.70
2023-02-09T13:37:45.894Z,27.50
2023-02-09T13:40:48.363Z,27.70
2023-02-09T13:43:45.253Z,27.60
2023-02-09T13:46:40.577Z,27.50
2023-02-09T13:49:34.802Z,27.50
2023-02-09T13:52:38.962Z,27.10
2023-02-09T13:55:33.575Z,27.10
2023-02-09T13:58:30.119Z,26.90
2023-02-09T14:01:34.255Z,27.00
2023-02-09T14:04:34.209Z,26.80
2023-02-09T14:07:33.397Z,27.00
2023-02-09T14:10:29.374Z,26.80
2023-02-09T14:13:42.307Z,26.80
2023-02-09T14:16:44.629Z,26.80
2023-02-09T14:19:49.903Z,27.30
2023-02-09T14:22:44.415Z,27.00
2023-02-09T14:25:38.835Z,26.90
2023-02-09T14:28:33.769Z,26.90
2023-02-09T14:31:28.640Z,26.90
2023-02-09T14:34:36.832Z,26.80
2023-02-09T14:37:32.188Z,27.00
2023-02-09T14:40:26.708Z,26.70
2023-02-09T14:43:26.674Z,26.90
2023-02-09T14:46:20.939Z,27.00
2023-02-09T14:49:15.232Z,27.00
2023-02-09T14:52:15.380Z,27.00
2023-02-09T14:55:20.529Z,27.00
2023-02-09T14:58:27.449Z,27.00
2023-02-09T15:01:21.724Z,26.90
2023-02-09T15:04:16.093Z,27.00
2023-02-09T15:07:14.671Z,27.00
2023-02-09T15:10:37.005Z,27.00
2023-02-09T15:13:34.211Z,27.00
2023-02-09T15:16:28.536Z,27.10
2023-02-09T15:19:24.150Z,27.00
2023-02-09T15:22:19.459Z,27.00
2023-02-09T15:25:16.344Z,27.20
2023-02-09T15:28:31.341Z,27.00
2023-02-09T15:31:26.193Z,27.10
2023-02-09T15:34:20.621Z,26.90
2023-02-09T15:37:21.820Z,26.90
2023-02-09T15:40:16.505Z,27.00
2023-02-09T15:43:35.259Z,27.00
2023-02-09T15:46:47.495Z,26.90
2023-02-09T15:49:41.749Z,26.90
2023-02-09T15:52:36.179Z,26.90
2023-02-09T15:55:30.599Z,27.10
2023-02-09T15:58:36.288Z,27.20
2023-02-09T16:01:35.042Z,27.30
2023-02-09T16:04:29.398Z,27.20
2023-02-09T16:07:27.607Z,27.10
2023-02-09T16:10:27.023Z,27.00
2023-02-09T16:13:22.314Z,27.10
2023-02-09T16:16:18.564Z,27.60
2023-02-09T16:19:12.845Z,27.70
2023-02-09T16:22:08.785Z,27.80
2023-02-09T16:25:03.117Z,27.90
2023-02-09T16:27:58.865Z,28.10
2023-02-09T16:30:56.458Z,28.40
2023-02-09T16:33:52.546Z,28.60
2023-02-09T16:36:48.574Z,28.90
2023-02-09T16:39:43.648Z,29.10
2023-02-09T16:42:37.885Z,29.40
2023-02-09T16:45:36.702Z,32.00
2023-02-09T16:48:33.766Z,35.10
2023-02-09T16:51:27.541Z,37.10
2023-02-09T16:54:21.818Z,37.80
2023-02-09T16:57:18.748Z,39.30
2023-02-09T17:00:13.677Z,39.90
2023-02-09T17:03:21.273Z,40.20
2023-02-09T17:06:24.523Z,41.20
2023-02-09T17:09:19.204Z,42.50
2023-02-09T17:12:14.131Z,43.40
2023-02-09T17:15:17.649Z,43.90
2023-02-09T17:18:27.998Z,44.20
2023-02-09T17:21:30.458Z,44.60
2023-02-09T17:24:24.671Z,45.30
2023-02-09T17:27:18.950Z,46.60
2023-02-09T17:30:17.231Z,46.80
2023-02-09T17:33:20.601Z,46.60
2023-02-09T17:36:31.128Z,47.00
2023-02-09T17:39:25.908Z,47.00
2023-02-09T17:42:23.882Z,47.70
2023-02-09T17:45:28.206Z,47.30
2023-02-09T17:48:23.956Z,47.40
2023-02-09T17:51:37.197Z,48.20
2023-02-09T17:54:33.693Z,47.80
2023-02-09T17:57:28.883Z,47.60
2023-02-09T18:00:23.404Z,48.30
2023-02-09T18:03:20.242Z,48.70
2023-02-09T18:06:16.420Z,49.30
2023-02-09T18:09:13.513Z,49.90
2023-02-09T18:12:19.951Z,54.00
2023-02-09T18:15:20.408Z,57.60
2023-02-09T18:18:14.730Z,61.50
2023-02-09T18:21:10.678Z,64.20
2023-02-09T18:24:05.429Z,66.80
2023-02-09T18:27:00.515Z,71.60
2023-02-09T18:29:54.755Z,73.20
2023-02-09T18:32:49.717Z,74.80
2023-02-09T18:35:45.893Z,77.10
2023-02-09T18:38:40.489Z,76.90
2023-02-09T18:41:34.785Z,77.00
2023-02-09T18:44:33.571Z,78.10
2023-02-09T18:47:28.299Z,77.60
2023-02-09T18:50:25.252Z,77.80
2023-02-09T18:53:23.228Z,77.70
2023-02-09T18:56:20.553Z,76.90
2023-02-09T18:59:14.480Z,77.70
2023-02-09T19:02:11.452Z,77.90
2023-02-09T19:05:06.777Z,77.90
2023-02-09T19:08:01.107Z,77.30
2023-02-09T19:10:55.351Z,77.10
2023-02-09T19:14:08.287Z,76.60
2023-02-09T19:17:02.497Z,78.80
2023-02-09T19:19:59.835Z,80.40
2023-02-09T19:22:54.073Z,80.70
2023-02-09T19:25:48.717Z,80.10
2023-02-09T19:28:43.083Z,79.80
2023-02-09T19:31:38.090Z,79.80
2023-02-09T19:34:38.219Z,79.10
2023-02-09T19:37:32.606Z,78.90
2023-02-09T19:40:34.812Z,78.30
2023-02-09T19:43:29.211Z,78.80
2023-02-09T19:46:23.654Z,79.50
2023-02-09T19:49:18.060Z,80.00
2023-02-09T19:52:12.298Z,80.50
2023-02-09T19:55:07.676Z,80.50
2023-02-09T19:58:01.958Z,81.40
2023-02-09T20:00:57.330Z,81.80
2023-02-09T20:03:53.430Z,81.10
2023-02-09T20:06:47.703Z,81.50
2023-02-09T20:09:43.068Z,81.10
2023-02-09T20:12:37.325Z,80.70
2023-02-09T20:15:31.567Z,81.10
2023-02-09T20:18:26.489Z,81.10
2023-02-09T20:21:22.942Z,80.90
2023-02-09T20:24:17.420Z,81.20
2023-02-09T20:27:12.506Z,82.70
2023-02-09T20:30:08.619Z,81.40
2023-02-09T20:33:03.160Z,81.00
2023-02-09T20:35:57.890Z,80.70
2023-02-09T20:38:52.237Z,80.80
2023-02-09T20:42:07.126Z,80.60
2023-02-09T20:45:19.652Z,81.20
2023-02-09T20:48:14.981Z,80.70
2023-02-09T20:51:09.342Z,80.60
2023-02-09T20:54:03.646Z,80.80
2023-02-09T20:56:57.951Z,80.90
2023-02-09T20:59:52.331Z,80.70
2023-02-09T21:02:46.722Z,81.10
2023-02-09T21:05:40.953Z,81.10
2023-02-09T21:08:38.721Z,80.70
2023-02-09T21:11:33.002Z,81.10
2023-02-09T21:14:28.051Z,80.70
2023-02-09T21:17:32.799Z,80.30
2023-02-09T21:20:27.215Z,80.50
2023-02-09T21:23:21.853Z,80.70
2023-02-09T21:26:20.808Z,80.70
2023-02-09T21:29:16.320Z,80.70
2023-02-09T21:32:12.281Z,80.30
2023-02-09T21:35:11.364Z,79.90
2023-02-09T21:38:05.537Z,79.40
2023-02-09T21:40:59.821Z,79.30
2023-02-09T21:43:54.087Z,79.20
2023-02-09T21:46:49.368Z,79.20
2023-02-09T21:49:43.730Z,79.10
2023-02-09T21:52:38.487Z,78.70
2023-02-09T21:55:32.793Z,78.40
2023-02-09T21:58:27.041Z,78.70
2023-02-09T22:01:21.214Z,78.90
2023-02-09T22:04:15.604Z,79.00
2023-02-09T22:07:11.095Z,79.40
2023-02-09T22:10:06.431Z,79.20
2023-02-09T22:13:00.688Z,79.20
2023-02-09T22:15:54.898Z,79.20
2023-02-09T22:18:49.307Z,79.60
2023-02-09T22:21:43.792Z,81.10
2023-02-09T22:24:38.426Z,80.10
2023-02-09T22:27:35.378Z,79.80
2023-02-09T22:30:29.979Z,80.40
2023-02-09T22:33:25.288Z,79.90
2023-02-09T22:36:20.564Z,80.00
2023-02-09T22:39:14.959Z,81.10
2023-02-09T22:42:09.277Z,81.10
2023-02-09T22:45:05.592Z,81.00
2023-02-09T22:47:59.891Z,81.10
2023-02-09T22:50:54.239Z,81.20
2023-02-09T22:53:48.630Z,81.20
2023-02-09T22:56:43.525Z,81.60
2023-02-09T22:59:37.828Z,81.30
2023-02-09T23:02:32.152Z,80.10
2023-02-09T23:05:26.373Z,78.50
2023-02-09T23:08:22.340Z,78.50
2023-02-09T23:11:19.279Z,78.10
2023-02-09T23:14:14.855Z,77.00
2023-02-09T23:17:09.305Z,76.30
2023-02-09T23:20:03.748Z,75.90
2023-02-09T23:23:02.566Z,75.80
2023-02-09T23:25:56.857Z,76.40
2023-02-09T23:28:56.958Z,75.80
2023-02-09T23:31:51.433Z,75.40
2023-02-09T23:34:45.806Z,75.40
2023-02-09T23:37:40.048Z,75.60
2023-02-09T23:40:34.486Z,75.70
2023-02-09T23:43:28.907Z,74.80
2023-02-09T23:46:28.189Z,74.60
2023-02-09T23:49:23.998Z,74.40
2023-02-09T23:52:18.221Z,74.60
2023-02-09T23:55:12.430Z,74.30
2023-02-09T23:58:06.802Z,74.90
